EGBJ/GLO METAR and TAF weather

Enter ICAO airport designator
Station Type Date Time Source
EGBJ METAR 2021/03/02 16:50 UTC NOAA

EGBJ 021650Z 01003KT 9000 SCT020 07/04 Q1028


Station Type Date Time Source
EGBJ Decoded METAR 2021/03/02 16:50 UTC NOAA

Staverton Private , United Kingdom (EGBJ) 51-54N 002-10W
Mar 02, 2021 - 11:50 AM EST / 2021.03.02 1650 UTC
Wind: from the N (010 degrees) at 3 MPH (3 KT):0
Visibility: 5 mile(s):0
Sky conditions: partly cloudy
Temperature: 44 F (7 C)
Dew Point: 39 F (4 C)
Relative Humidity: 81%
Pressure (altimeter): 30.36 in. Hg (1028 hPa)
ob: EGBJ 021650Z 01003KT 9000 SCT020 07/04 Q1028
cycle: 17

Station Type Date Time Source
EGBJ TAF UTC NOAA

Error!

Example: see airport list